sensor_id;sensor_type;location;lat;lon;timestamp;P1;durP1;ratioP1;P2;durP2;ratioP2
10283;SDS011;5187;52.378;9.018;2022-09-09T00:01:59;6.87;;;3.50;;
10283;SDS011;5187;52.378;9.018;2022-09-09T00:04:30;3.37;;;2.97;;
10283;SDS011;5187;52.378;9.018;2022-09-09T00:07:00;4.13;;;3.17;;
10283;SDS011;5187;52.378;9.018;2022-09-09T00:09:32;4.27;;;2.90;;
10283;SDS011;5187;52.378;9.018;2022-09-09T00:12:05;6.53;;;3.20;;
10283;SDS011;5187;52.378;9.018;2022-09-09T00:14:37;5.53;;;3.43;;
10283;SDS011;5187;52.378;9.018;2022-09-09T00:17:08;6.40;;;3.20;;
10283;SDS011;5187;52.378;9.018;2022-09-09T00:19:38;7.27;;;3.03;;
10283;SDS011;5187;52.378;9.018;2022-09-09T00:22:14;5.77;;;3.13;;
10283;SDS011;5187;52.378;9.018;2022-09-09T00:24:44;4.03;;;2.97;;
10283;SDS011;5187;52.378;9.018;2022-09-09T00:27:16;5.87;;;3.40;;
10283;SDS011;5187;52.378;9.018;2022-09-09T00:29:51;5.90;;;3.77;;
10283;SDS011;5187;52.378;9.018;2022-09-09T00:32:21;6.60;;;3.37;;
10283;SDS011;5187;52.378;9.018;2022-09-09T00:34:51;3.93;;;3.20;;
10283;SDS011;5187;52.378;9.018;2022-09-09T00:37:21;4.33;;;3.20;;
10283;SDS011;5187;52.378;9.018;2022-09-09T00:39:51;5.77;;;3.30;;
10283;SDS011;5187;52.378;9.018;2022-09-09T00:42:24;4.60;;;2.83;;
10283;SDS011;5187;52.378;9.018;2022-09-09T00:44:55;6.43;;;3.03;;
10283;SDS011;5187;52.378;9.018;2022-09-09T00:50:15;4.17;;;2.90;;
10283;SDS011;5187;52.378;9.018;2022-09-09T00:52:46;4.03;;;2.60;;
10283;SDS011;5187;52.378;9.018;2022-09-09T00:55:19;5.57;;;2.80;;
10283;SDS011;5187;52.378;9.018;2022-09-09T00:57:50;3.23;;;2.70;;
10283;SDS011;5187;52.378;9.018;2022-09-09T01:00:31;6.43;;;2.73;;
10283;SDS011;5187;52.378;9.018;2022-09-09T01:03:30;7.17;;;2.70;;
10283;SDS011;5187;52.378;9.018;2022-09-09T01:06:13;5.83;;;2.37;;
10283;SDS011;5187;52.378;9.018;2022-09-09T01:11:43;5.60;;;2.70;;
10283;SDS011;5187;52.378;9.018;2022-09-09T01:14:22;4.23;;;2.40;;
10283;SDS011;5187;52.378;9.018;2022-09-09T01:17:13;5.70;;;2.50;;
10283;SDS011;5187;52.378;9.018;2022-09-09T01:19:51;3.97;;;2.70;;
10283;SDS011;5187;52.378;9.018;2022-09-09T01:22:36;4.67;;;2.93;;
10283;SDS011;5187;52.378;9.018;2022-09-09T01:25:23;3.13;;;2.60;;
10283;SDS011;5187;52.378;9.018;2022-09-09T01:27:59;3.53;;;2.57;;
10283;SDS011;5187;52.378;9.018;2022-09-09T01:30:43;2.53;;;2.33;;
10283;SDS011;5187;52.378;9.018;2022-09-09T01:33:14;5.43;;;2.50;;
10283;SDS011;5187;52.378;9.018;2022-09-09T01:35:55;2.60;;;2.33;;
10283;SDS011;5187;52.378;9.018;2022-09-09T01:38:36;4.37;;;2.40;;
10283;SDS011;5187;52.378;9.018;2022-09-09T01:41:07;3.70;;;2.40;;
10283;SDS011;5187;52.378;9.018;2022-09-09T01:43:48;5.23;;;2.53;;
10283;SDS011;5187;52.378;9.018;2022-09-09T01:46:28;5.43;;;2.50;;
10283;SDS011;5187;52.378;9.018;2022-09-09T01:48:58;3.30;;;2.53;;
10283;SDS011;5187;52.378;9.018;2022-09-09T01:51:37;3.63;;;2.30;;
10283;SDS011;5187;52.378;9.018;2022-09-09T01:54:20;2.73;;;2.20;;
10283;SDS011;5187;52.378;9.018;2022-09-09T01:56:58;5.63;;;2.30;;
10283;SDS011;5187;52.378;9.018;2022-09-09T01:59:47;7.97;;;2.50;;
10283;SDS011;5187;52.378;9.018;2022-09-09T02:02:23;4.37;;;2.17;;
10283;SDS011;5187;52.378;9.018;2022-09-09T02:05:04;3.63;;;2.07;;
10283;SDS011;5187;52.378;9.018;2022-09-09T02:07:43;4.07;;;2.23;;
10283;SDS011;5187;52.378;9.018;2022-09-09T02:10:24;5.23;;;2.30;;
10283;SDS011;5187;52.378;9.018;2022-09-09T02:13:07;3.63;;;2.23;;
10283;SDS011;5187;52.378;9.018;2022-09-09T02:15:42;5.93;;;2.60;;
10283;SDS011;5187;52.378;9.018;2022-09-09T02:18:24;4.20;;;2.37;;
10283;SDS011;5187;52.378;9.018;2022-09-09T02:20:55;3.70;;;2.00;;
10283;SDS011;5187;52.378;9.018;2022-09-09T02:23:35;2.87;;;2.07;;
10283;SDS011;5187;52.378;9.018;2022-09-09T02:26:06;5.73;;;2.23;;
10283;SDS011;5187;52.378;9.018;2022-09-09T02:28:47;3.53;;;2.17;;
10283;SDS011;5187;52.378;9.018;2022-09-09T02:31:28;3.20;;;1.97;;
10283;SDS011;5187;52.378;9.018;2022-09-09T02:34:09;4.23;;;2.23;;
10283;SDS011;5187;52.378;9.018;2022-09-09T02:36:52;3.60;;;1.97;;
10283;SDS011;5187;52.378;9.018;2022-09-09T02:39:32;3.13;;;2.30;;
10283;SDS011;5187;52.378;9.018;2022-09-09T02:42:12;4.00;;;2.17;;
10283;SDS011;5187;52.378;9.018;2022-09-09T02:44:51;3.93;;;2.10;;
10283;SDS011;5187;52.378;9.018;2022-09-09T02:47:25;4.23;;;2.10;;
10283;SDS011;5187;52.378;9.018;2022-09-09T02:49:58;6.33;;;2.37;;
10283;SDS011;5187;52.378;9.018;2022-09-09T02:52:46;7.17;;;2.60;;
10283;SDS011;5187;52.378;9.018;2022-09-09T02:55:34;4.17;;;2.43;;
10283;SDS011;5187;52.378;9.018;2022-09-09T02:58:16;3.53;;;2.57;;
10283;SDS011;5187;52.378;9.018;2022-09-09T03:00:46;4.80;;;2.40;;
10283;SDS011;5187;52.378;9.018;2022-09-09T03:03:28;2.93;;;2.50;;
10283;SDS011;5187;52.378;9.018;2022-09-09T03:06:07;6.00;;;2.23;;
10283;SDS011;5187;52.378;9.018;2022-09-09T03:08:48;5.47;;;2.77;;
10283;SDS011;5187;52.378;9.018;2022-09-09T03:11:22;5.93;;;2.40;;
10283;SDS011;5187;52.378;9.018;2022-09-09T03:13:55;4.07;;;2.33;;
10283;SDS011;5187;52.378;9.018;2022-09-09T03:16:24;4.80;;;2.53;;
10283;SDS011;5187;52.378;9.018;2022-09-09T03:19:04;3.20;;;2.47;;
10283;SDS011;5187;52.378;9.018;2022-09-09T03:21:37;3.57;;;2.50;;
10283;SDS011;5187;52.378;9.018;2022-09-09T03:24:16;3.37;;;2.43;;
10283;SDS011;5187;52.378;9.018;2022-09-09T03:26:55;4.03;;;2.33;;
10283;SDS011;5187;52.378;9.018;2022-09-09T03:29:28;4.53;;;2.50;;
10283;SDS011;5187;52.378;9.018;2022-09-09T03:31:59;4.83;;;2.90;;
10283;SDS011;5187;52.378;9.018;2022-09-09T03:34:45;5.33;;;3.20;;
10283;SDS011;5187;52.378;9.018;2022-09-09T03:37:18;6.33;;;2.90;;
10283;SDS011;5187;52.378;9.018;2022-09-09T03:39:57;3.77;;;3.27;;
10283;SDS011;5187;52.378;9.018;2022-09-09T03:42:39;5.57;;;3.20;;
10283;SDS011;5187;52.378;9.018;2022-09-09T03:45:09;5.57;;;3.10;;
10283;SDS011;5187;52.378;9.018;2022-09-09T03:47:44;5.30;;;3.33;;
10283;SDS011;5187;52.378;9.018;2022-09-09T03:50:25;3.17;;;2.43;;
10283;SDS011;5187;52.378;9.018;2022-09-09T03:53:08;3.83;;;2.43;;
10283;SDS011;5187;52.378;9.018;2022-09-09T03:55:43;4.10;;;2.50;;
10283;SDS011;5187;52.378;9.018;2022-09-09T03:58:19;3.93;;;2.20;;
10283;SDS011;5187;52.378;9.018;2022-09-09T04:01:03;4.93;;;2.73;;
10283;SDS011;5187;52.378;9.018;2022-09-09T04:03:46;4.27;;;2.40;;
10283;SDS011;5187;52.378;9.018;2022-09-09T04:06:28;6.43;;;2.40;;
10283;SDS011;5187;52.378;9.018;2022-09-09T04:09:09;4.37;;;2.50;;
10283;SDS011;5187;52.378;9.018;2022-09-09T04:11:41;6.13;;;2.57;;
10283;SDS011;5187;52.378;9.018;2022-09-09T04:14:14;4.17;;;2.37;;
10283;SDS011;5187;52.378;9.018;2022-09-09T04:16:53;5.57;;;2.27;;
10283;SDS011;5187;52.378;9.018;2022-09-09T04:19:27;4.77;;;2.10;;
10283;SDS011;5187;52.378;9.018;2022-09-09T04:22:06;5.50;;;2.10;;
10283;SDS011;5187;52.378;9.018;2022-09-09T04:24:46;3.63;;;2.30;;
10283;SDS011;5187;52.378;9.018;2022-09-09T04:27:19;4.70;;;2.40;;
10283;SDS011;5187;52.378;9.018;2022-09-09T04:29:48;3.60;;;2.30;;
10283;SDS011;5187;52.378;9.018;2022-09-09T04:32:24;6.17;;;2.50;;
10283;SDS011;5187;52.378;9.018;2022-09-09T04:34:57;3.93;;;2.30;;
10283;SDS011;5187;52.378;9.018;2022-09-09T04:37:40;3.83;;;2.27;;
10283;SDS011;5187;52.378;9.018;2022-09-09T04:40:12;3.43;;;2.33;;
10283;SDS011;5187;52.378;9.018;2022-09-09T04:42:53;5.27;;;2.50;;
10283;SDS011;5187;52.378;9.018;2022-09-09T04:45:25;6.20;;;2.67;;
10283;SDS011;5187;52.378;9.018;2022-09-09T04:47:55;3.70;;;2.53;;
10283;SDS011;5187;52.378;9.018;2022-09-09T04:50:25;5.60;;;2.60;;
10283;SDS011;5187;52.378;9.018;2022-09-09T04:53:07;3.73;;;2.37;;
10283;SDS011;5187;52.378;9.018;2022-09-09T04:55:46;3.93;;;2.43;;
10283;SDS011;5187;52.378;9.018;2022-09-09T04:58:30;4.73;;;2.80;;
10283;SDS011;5187;52.378;9.018;2022-09-09T05:01:04;5.80;;;2.60;;
10283;SDS011;5187;52.378;9.018;2022-09-09T05:03:45;4.47;;;2.73;;
10283;SDS011;5187;52.378;9.018;2022-09-09T05:06:15;6.80;;;2.30;;
10283;SDS011;5187;52.378;9.018;2022-09-09T05:08:59;4.70;;;2.70;;
10283;SDS011;5187;52.378;9.018;2022-09-09T05:11:29;5.17;;;2.43;;
10283;SDS011;5187;52.378;9.018;2022-09-09T05:14:09;2.73;;;2.50;;
10283;SDS011;5187;52.378;9.018;2022-09-09T05:16:51;6.53;;;2.70;;
10283;SDS011;5187;52.378;9.018;2022-09-09T05:19:28;3.57;;;2.30;;
10283;SDS011;5187;52.378;9.018;2022-09-09T05:22:02;3.73;;;2.43;;
10283;SDS011;5187;52.378;9.018;2022-09-09T05:24:33;5.80;;;2.47;;
10283;SDS011;5187;52.378;9.018;2022-09-09T05:27:12;6.70;;;2.57;;
10283;SDS011;5187;52.378;9.018;2022-09-09T05:29:54;3.33;;;2.33;;
10283;SDS011;5187;52.378;9.018;2022-09-09T05:32:29;6.07;;;2.87;;
10283;SDS011;5187;52.378;9.018;2022-09-09T05:35:10;4.43;;;2.10;;
10283;SDS011;5187;52.378;9.018;2022-09-09T05:37:42;2.90;;;2.37;;
10283;SDS011;5187;52.378;9.018;2022-09-09T05:40:27;5.67;;;2.40;;
10283;SDS011;5187;52.378;9.018;2022-09-09T05:42:59;5.70;;;2.40;;
10283;SDS011;5187;52.378;9.018;2022-09-09T05:45:41;5.63;;;2.40;;
10283;SDS011;5187;52.378;9.018;2022-09-09T05:48:27;5.83;;;2.37;;
10283;SDS011;5187;52.378;9.018;2022-09-09T05:51:08;5.23;;;2.53;;
10283;SDS011;5187;52.378;9.018;2022-09-09T05:53:39;4.87;;;2.30;;
10283;SDS011;5187;52.378;9.018;2022-09-09T05:56:20;4.53;;;2.30;;
10283;SDS011;5187;52.378;9.018;2022-09-09T05:58:57;3.53;;;2.10;;
10283;SDS011;5187;52.378;9.018;2022-09-09T06:01:34;4.90;;;2.17;;
10283;SDS011;5187;52.378;9.018;2022-09-09T06:04:16;6.83;;;2.50;;
10283;SDS011;5187;52.378;9.018;2022-09-09T06:06:58;3.13;;;1.97;;
10283;SDS011;5187;52.378;9.018;2022-09-09T06:09:38;2.97;;;2.13;;
10283;SDS011;5187;52.378;9.018;2022-09-09T06:12:18;3.43;;;2.40;;
10283;SDS011;5187;52.378;9.018;2022-09-09T06:14:57;5.33;;;2.20;;
10283;SDS011;5187;52.378;9.018;2022-09-09T06:17:36;2.97;;;2.23;;
10283;SDS011;5187;52.378;9.018;2022-09-09T06:20:10;5.13;;;2.70;;
10283;SDS011;5187;52.378;9.018;2022-09-09T06:22:49;3.93;;;2.30;;
10283;SDS011;5187;52.378;9.018;2022-09-09T06:25:19;3.57;;;2.10;;
10283;SDS011;5187;52.378;9.018;2022-09-09T06:27:52;4.30;;;2.40;;
10283;SDS011;5187;52.378;9.018;2022-09-09T06:30:28;3.90;;;2.10;;
10283;SDS011;5187;52.378;9.018;2022-09-09T06:33:07;3.90;;;2.60;;
10283;SDS011;5187;52.378;9.018;2022-09-09T06:35:50;3.47;;;2.23;;
10283;SDS011;5187;52.378;9.018;2022-09-09T06:38:30;3.23;;;2.37;;
10283;SDS011;5187;52.378;9.018;2022-09-09T06:41:10;3.40;;;2.23;;
10283;SDS011;5187;52.378;9.018;2022-09-09T06:43:52;3.07;;;2.40;;
10283;SDS011;5187;52.378;9.018;2022-09-09T06:46:25;5.40;;;2.40;;
10283;SDS011;5187;52.378;9.018;2022-09-09T06:49:08;4.00;;;2.27;;
10283;SDS011;5187;52.378;9.018;2022-09-09T06:51:47;5.63;;;2.47;;
10283;SDS011;5187;52.378;9.018;2022-09-09T06:54:25;6.63;;;2.30;;
10283;SDS011;5187;52.378;9.018;2022-09-09T06:57:07;5.37;;;2.83;;
10283;SDS011;5187;52.378;9.018;2022-09-09T07:00:02;3.93;;;2.60;;
10283;SDS011;5187;52.378;9.018;2022-09-09T07:02:43;3.67;;;2.13;;
10283;SDS011;5187;52.378;9.018;2022-09-09T07:05:13;5.40;;;2.43;;
10283;SDS011;5187;52.378;9.018;2022-09-09T07:07:43;3.80;;;2.77;;
10283;SDS011;5187;52.378;9.018;2022-09-09T07:10:19;3.47;;;2.50;;
10283;SDS011;5187;52.378;9.018;2022-09-09T07:12:59;4.88;;;2.40;;
10283;SDS011;5187;52.378;9.018;2022-09-09T07:15:31;3.92;;;2.50;;
10283;SDS011;5187;52.378;9.018;2022-09-09T07:18:04;4.65;;;2.40;;
10283;SDS011;5187;52.378;9.018;2022-09-09T07:20:53;5.82;;;2.00;;
10283;SDS011;5187;52.378;9.018;2022-09-09T07:23:26;3.97;;;2.05;;
10283;SDS011;5187;52.378;9.018;2022-09-09T07:26:11;5.03;;;2.03;;
10283;SDS011;5187;52.378;9.018;2022-09-09T07:28:51;3.42;;;1.98;;
10283;SDS011;5187;52.378;9.018;2022-09-09T07:31:26;2.70;;;1.60;;
10283;SDS011;5187;52.378;9.018;2022-09-09T07:33:57;5.30;;;2.17;;
10283;SDS011;5187;52.378;9.018;2022-09-09T07:36:36;3.78;;;2.20;;
10283;SDS011;5187;52.378;9.018;2022-09-09T07:39:07;3.25;;;2.03;;
10283;SDS011;5187;52.378;9.018;2022-09-09T07:41:48;3.47;;;2.15;;
10283;SDS011;5187;52.378;9.018;2022-09-09T07:44:28;4.22;;;2.00;;
10283;SDS011;5187;52.378;9.018;2022-09-09T07:47:16;3.83;;;2.03;;
10283;SDS011;5187;52.378;9.018;2022-09-09T07:49:55;5.53;;;2.00;;
10283;SDS011;5187;52.378;9.018;2022-09-09T07:52:25;5.70;;;1.90;;
10283;SDS011;5187;52.378;9.018;2022-09-09T07:55:05;3.35;;;1.95;;
10283;SDS011;5187;52.378;9.018;2022-09-09T07:57:37;4.65;;;1.75;;
10283;SDS011;5187;52.378;9.018;2022-09-09T08:00:16;3.85;;;2.42;;
10283;SDS011;5187;52.378;9.018;2022-09-09T08:02:53;4.28;;;2.17;;
10283;SDS011;5187;52.378;9.018;2022-09-09T08:05:32;4.10;;;1.90;;
10283;SDS011;5187;52.378;9.018;2022-09-09T08:08:04;3.83;;;1.80;;
10283;SDS011;5187;52.378;9.018;2022-09-09T08:10:34;3.63;;;1.80;;
10283;SDS011;5187;52.378;9.018;2022-09-09T08:13:15;8.02;;;1.98;;
10283;SDS011;5187;52.378;9.018;2022-09-09T08:15:54;3.58;;;1.98;;
10283;SDS011;5187;52.378;9.018;2022-09-09T08:18:32;2.97;;;1.70;;
10283;SDS011;5187;52.378;9.018;2022-09-09T08:21:05;1.95;;;1.75;;
10283;SDS011;5187;52.378;9.018;2022-09-09T08:23:45;4.75;;;2.00;;
10283;SDS011;5187;52.378;9.018;2022-09-09T08:26:24;6.20;;;2.25;;
10283;SDS011;5187;52.378;9.018;2022-09-09T08:28:59;5.15;;;2.03;;
10283;SDS011;5187;52.378;9.018;2022-09-09T08:31:32;4.03;;;1.80;;
10283;SDS011;5187;52.378;9.018;2022-09-09T08:34:04;3.58;;;1.70;;
10283;SDS011;5187;52.378;9.018;2022-09-09T08:36:42;5.60;;;1.63;;
10283;SDS011;5187;52.378;9.018;2022-09-09T08:39:21;4.03;;;1.98;;
10283;SDS011;5187;52.378;9.018;2022-09-09T08:44:52;5.82;;;1.88;;
10283;SDS011;5187;52.378;9.018;2022-09-09T08:47:28;3.92;;;1.70;;
10283;SDS011;5187;52.378;9.018;2022-09-09T08:50:16;2.78;;;1.58;;
10283;SDS011;5187;52.378;9.018;2022-09-09T08:53:03;3.65;;;1.63;;
10283;SDS011;5187;52.378;9.018;2022-09-09T08:55:36;3.58;;;1.73;;
10283;SDS011;5187;52.378;9.018;2022-09-09T08:58:17;4.82;;;1.73;;
10283;SDS011;5187;52.378;9.018;2022-09-09T09:01:02;5.63;;;1.92;;
10283;SDS011;5187;52.378;9.018;2022-09-09T09:03:35;2.78;;;1.77;;
10283;SDS011;5187;52.378;9.018;2022-09-09T09:06:19;5.28;;;1.65;;
10283;SDS011;5187;52.378;9.018;2022-09-09T09:09:05;5.45;;;2.10;;
10283;SDS011;5187;52.378;9.018;2022-09-09T09:11:38;5.40;;;1.80;;
10283;SDS011;5187;52.378;9.018;2022-09-09T09:14:19;3.40;;;1.80;;
10283;SDS011;5187;52.378;9.018;2022-09-09T09:17:00;3.55;;;1.60;;
10283;SDS011;5187;52.378;9.018;2022-09-09T09:19:43;3.25;;;1.60;;
10283;SDS011;5187;52.378;9.018;2022-09-09T09:22:26;3.92;;;1.95;;
10283;SDS011;5187;52.378;9.018;2022-09-09T09:25:01;5.78;;;1.58;;
10283;SDS011;5187;52.378;9.018;2022-09-09T09:27:36;4.57;;;1.60;;
10283;SDS011;5187;52.378;9.018;2022-09-09T09:30:13;4.07;;;1.90;;
10283;SDS011;5187;52.378;9.018;2022-09-09T09:32:58;5.30;;;1.75;;
10283;SDS011;5187;52.378;9.018;2022-09-09T09:35:28;4.82;;;1.73;;
10283;SDS011;5187;52.378;9.018;2022-09-09T09:38:13;4.65;;;1.63;;
10283;SDS011;5187;52.378;9.018;2022-09-09T09:41:11;3.65;;;1.60;;
10283;SDS011;5187;52.378;9.018;2022-09-09T09:43:53;7.28;;;2.00;;
10283;SDS011;5187;52.378;9.018;2022-09-09T09:46:36;4.97;;;1.80;;
10283;SDS011;5187;52.378;9.018;2022-09-09T09:49:08;4.75;;;1.60;;
10283;SDS011;5187;52.378;9.018;2022-09-09T09:51:46;4.10;;;1.83;;
10283;SDS011;5187;52.378;9.018;2022-09-09T09:54:27;4.80;;;1.75;;
10283;SDS011;5187;52.378;9.018;2022-09-09T09:57:10;5.63;;;1.80;;
10283;SDS011;5187;52.378;9.018;2022-09-09T09:59:47;4.93;;;1.92;;
10283;SDS011;5187;52.378;9.018;2022-09-09T10:02:25;3.42;;;1.70;;
10283;SDS011;5187;52.378;9.018;2022-09-09T10:05:03;5.25;;;2.05;;
10283;SDS011;5187;52.378;9.018;2022-09-09T10:07:44;4.80;;;1.92;;
10283;SDS011;5187;52.378;9.018;2022-09-09T10:10:26;3.40;;;1.88;;
10283;SDS011;5187;52.378;9.018;2022-09-09T10:13:00;3.60;;;1.70;;
10283;SDS011;5187;52.378;9.018;2022-09-09T10:15:38;5.75;;;2.00;;
10283;SDS011;5187;52.378;9.018;2022-09-09T10:18:17;4.35;;;1.88;;
10283;SDS011;5187;52.378;9.018;2022-09-09T10:20:51;3.53;;;1.83;;
10283;SDS011;5187;52.378;9.018;2022-09-09T10:23:28;4.30;;;1.90;;
10283;SDS011;5187;52.378;9.018;2022-09-09T10:26:18;6.25;;;1.90;;
10283;SDS011;5187;52.378;9.018;2022-09-09T10:29:07;8.02;;;2.40;;
10283;SDS011;5187;52.378;9.018;2022-09-09T10:31:42;4.13;;;2.35;;
10283;SDS011;5187;52.378;9.018;2022-09-09T10:34:37;6.90;;;2.30;;
10283;SDS011;5187;52.378;9.018;2022-09-09T10:37:34;8.52;;;2.60;;
10283;SDS011;5187;52.378;9.018;2022-09-09T10:40:26;7.78;;;2.80;;
10283;SDS011;5187;52.378;9.018;2022-09-09T10:43:07;4.88;;;2.20;;
10283;SDS011;5187;52.378;9.018;2022-09-09T10:45:52;5.35;;;2.58;;
10283;SDS011;5187;52.378;9.018;2022-09-09T10:48:40;6.03;;;2.30;;
10283;SDS011;5187;52.378;9.018;2022-09-09T10:51:25;2.20;;;0.98;;
10283;SDS011;5187;52.378;9.018;2022-09-09T10:54:07;1.63;;;0.90;;
10283;SDS011;5187;52.378;9.018;2022-09-09T10:56:40;2.58;;;0.80;;
10283;SDS011;5187;52.378;9.018;2022-09-09T10:59:13;2.83;;;1.08;;
10283;SDS011;5187;52.378;9.018;2022-09-09T11:01:43;4.38;;;1.17;;
10283;SDS011;5187;52.378;9.018;2022-09-09T11:04:14;4.05;;;1.20;;
10283;SDS011;5187;52.378;9.018;2022-09-09T11:06:44;2.65;;;1.30;;
10283;SDS011;5187;52.378;9.018;2022-09-09T11:09:19;2.42;;;1.08;;
10283;SDS011;5187;52.378;9.018;2022-09-09T11:11:51;2.83;;;1.00;;
10283;SDS011;5187;52.378;9.018;2022-09-09T11:14:22;3.45;;;1.50;;
10283;SDS011;5187;52.378;9.018;2022-09-09T11:17:01;3.40;;;1.30;;
10283;SDS011;5187;52.378;9.018;2022-09-09T11:19:31;4.78;;;1.48;;
10283;SDS011;5187;52.378;9.018;2022-09-09T11:22:01;6.10;;;3.47;;
10283;SDS011;5187;52.378;9.018;2022-09-09T11:24:33;2.72;;;1.20;;
10283;SDS011;5187;52.378;9.018;2022-09-09T11:27:06;2.53;;;1.23;;
10283;SDS011;5187;52.378;9.018;2022-09-09T11:29:46;3.50;;;1.60;;
10283;SDS011;5187;52.378;9.018;2022-09-09T11:32:23;2.83;;;1.23;;
10283;SDS011;5187;52.378;9.018;2022-09-09T11:34:55;4.57;;;1.20;;
10283;SDS011;5187;52.378;9.018;2022-09-09T11:40:16;4.90;;;1.42;;
10283;SDS011;5187;52.378;9.018;2022-09-09T11:42:46;3.67;;;1.50;;
10283;SDS011;5187;52.378;9.018;2022-09-09T11:45:21;2.85;;;1.10;;
10283;SDS011;5187;52.378;9.018;2022-09-09T11:47:52;3.88;;;1.10;;
10283;SDS011;5187;52.378;9.018;2022-09-09T11:50:29;3.05;;;1.35;;
10283;SDS011;5187;52.378;9.018;2022-09-09T11:56:06;4.30;;;1.15;;
10283;SDS011;5187;52.378;9.018;2022-09-09T11:58:39;2.70;;;1.00;;
10283;SDS011;5187;52.378;9.018;2022-09-09T12:01:25;1.65;;;1.13;;
10283;SDS011;5187;52.378;9.018;2022-09-09T12:03:55;3.00;;;1.20;;
10283;SDS011;5187;52.378;9.018;2022-09-09T12:06:30;4.00;;;1.45;;
10283;SDS011;5187;52.378;9.018;2022-09-09T12:09:05;5.68;;;1.30;;
10283;SDS011;5187;52.378;9.018;2022-09-09T12:11:34;2.72;;;1.08;;
10283;SDS011;5187;52.378;9.018;2022-09-09T12:14:03;5.80;;;1.60;;
10283;SDS011;5187;52.378;9.018;2022-09-09T12:16:34;2.67;;;1.10;;
10283;SDS011;5187;52.378;9.018;2022-09-09T12:19:05;4.45;;;1.40;;
10283;SDS011;5187;52.378;9.018;2022-09-09T12:21:35;5.93;;;1.35;;
10283;SDS011;5187;52.378;9.018;2022-09-09T12:24:05;2.53;;;1.08;;
10283;SDS011;5187;52.378;9.018;2022-09-09T12:26:37;2.60;;;1.40;;
10283;SDS011;5187;52.378;9.018;2022-09-09T12:29:11;2.95;;;1.25;;
10283;SDS011;5187;52.378;9.018;2022-09-09T12:31:46;2.67;;;1.20;;
10283;SDS011;5187;52.378;9.018;2022-09-09T12:34:18;3.75;;;1.10;;
10283;SDS011;5187;52.378;9.018;2022-09-09T12:36:53;4.43;;;1.70;;
10283;SDS011;5187;52.378;9.018;2022-09-09T12:39:26;3.88;;;1.38;;
10283;SDS011;5187;52.378;9.018;2022-09-09T12:41:56;3.25;;;1.20;;
10283;SDS011;5187;52.378;9.018;2022-09-09T12:44:25;3.22;;;1.30;;
10283;SDS011;5187;52.378;9.018;2022-09-09T12:46:56;4.43;;;1.40;;
10283;SDS011;5187;52.378;9.018;2022-09-09T12:49:28;4.10;;;1.38;;
10283;SDS011;5187;52.378;9.018;2022-09-09T12:52:01;3.80;;;1.40;;
10283;SDS011;5187;52.378;9.018;2022-09-09T12:54:32;2.85;;;1.25;;
10283;SDS011;5187;52.378;9.018;2022-09-09T12:57:01;2.95;;;1.08;;
10283;SDS011;5187;52.378;9.018;2022-09-09T12:59:34;2.85;;;1.25;;
10283;SDS011;5187;52.378;9.018;2022-09-09T13:02:11;3.60;;;1.20;;
10283;SDS011;5187;52.378;9.018;2022-09-09T13:04:44;2.78;;;1.10;;
10283;SDS011;5187;52.378;9.018;2022-09-09T13:07:13;2.92;;;1.02;;
10283;SDS011;5187;52.378;9.018;2022-09-09T13:09:43;2.65;;;1.35;;
10283;SDS011;5187;52.378;9.018;2022-09-09T13:12:13;3.20;;;1.10;;
10283;SDS011;5187;52.378;9.018;2022-09-09T13:14:43;2.83;;;1.30;;
10283;SDS011;5187;52.378;9.018;2022-09-09T13:17:19;2.03;;;1.10;;
10283;SDS011;5187;52.378;9.018;2022-09-09T13:19:49;1.80;;;0.95;;
10283;SDS011;5187;52.378;9.018;2022-09-09T13:22:20;2.85;;;1.10;;
10283;SDS011;5187;52.378;9.018;2022-09-09T13:24:58;2.83;;;1.17;;
10283;SDS011;5187;52.378;9.018;2022-09-09T13:27:29;3.45;;;1.35;;
10283;SDS011;5187;52.378;9.018;2022-09-09T13:29:58;2.53;;;1.10;;
10283;SDS011;5187;52.378;9.018;2022-09-09T13:32:28;2.90;;;1.20;;
10283;SDS011;5187;52.378;9.018;2022-09-09T13:34:58;4.10;;;1.20;;
10283;SDS011;5187;52.378;9.018;2022-09-09T13:37:29;1.65;;;0.98;;
10283;SDS011;5187;52.378;9.018;2022-09-09T13:39:59;3.70;;;1.10;;
10283;SDS011;5187;52.378;9.018;2022-09-09T13:42:29;2.80;;;1.10;;
10283;SDS011;5187;52.378;9.018;2022-09-09T13:44:58;2.92;;;1.10;;
10283;SDS011;5187;52.378;9.018;2022-09-09T13:47:30;1.98;;;0.95;;
10283;SDS011;5187;52.378;9.018;2022-09-09T13:50:09;3.08;;;1.02;;
10283;SDS011;5187;52.378;9.018;2022-09-09T13:52:37;4.00;;;1.20;;
10283;SDS011;5187;52.378;9.018;2022-09-09T13:55:07;2.78;;;1.08;;
10283;SDS011;5187;52.378;9.018;2022-09-09T13:57:37;2.00;;;1.10;;
10283;SDS011;5187;52.378;9.018;2022-09-09T14:00:06;2.53;;;1.10;;
10283;SDS011;5187;52.378;9.018;2022-09-09T14:02:39;2.05;;;0.95;;
10283;SDS011;5187;52.378;9.018;2022-09-09T14:05:10;2.35;;;1.10;;
10283;SDS011;5187;52.378;9.018;2022-09-09T14:07:39;2.83;;;1.10;;
10283;SDS011;5187;52.378;9.018;2022-09-09T14:10:08;4.05;;;1.17;;
10283;SDS011;5187;52.378;9.018;2022-09-09T14:12:37;6.40;;;1.15;;
10283;SDS011;5187;52.378;9.018;2022-09-09T14:15:07;3.67;;;1.20;;
10283;SDS011;5187;52.378;9.018;2022-09-09T14:17:36;3.15;;;1.25;;
10283;SDS011;5187;52.378;9.018;2022-09-09T14:20:07;3.55;;;1.15;;
10283;SDS011;5187;52.378;9.018;2022-09-09T14:22:38;2.95;;;1.30;;
10283;SDS011;5187;52.378;9.018;2022-09-09T14:25:07;3.85;;;1.20;;
10283;SDS011;5187;52.378;9.018;2022-09-09T14:27:36;2.00;;;1.10;;
10283;SDS011;5187;52.378;9.018;2022-09-09T14:30:06;2.80;;;1.10;;
10283;SDS011;5187;52.378;9.018;2022-09-09T14:32:35;1.52;;;0.90;;
10283;SDS011;5187;52.378;9.018;2022-09-09T14:35:03;2.53;;;1.10;;
10283;SDS011;5187;52.378;9.018;2022-09-09T14:37:33;2.85;;;1.30;;
10283;SDS011;5187;52.378;9.018;2022-09-09T14:40:02;3.15;;;1.30;;
10283;SDS011;5187;52.378;9.018;2022-09-09T14:42:31;1.50;;;0.90;;
10283;SDS011;5187;52.378;9.018;2022-09-09T14:44:59;2.20;;;1.08;;
10283;SDS011;5187;52.378;9.018;2022-09-09T14:47:27;2.95;;;1.10;;
10283;SDS011;5187;52.378;9.018;2022-09-09T14:49:56;3.50;;;1.10;;
10283;SDS011;5187;52.378;9.018;2022-09-09T14:52:25;5.53;;;1.20;;
10283;SDS011;5187;52.378;9.018;2022-09-09T14:54:54;1.58;;;0.90;;
10283;SDS011;5187;52.378;9.018;2022-09-09T14:57:23;2.42;;;1.08;;
10283;SDS011;5187;52.378;9.018;2022-09-09T14:59:51;3.05;;;1.05;;
10283;SDS011;5187;52.378;9.018;2022-09-09T15:02:20;1.77;;;1.00;;
10283;SDS011;5187;52.378;9.018;2022-09-09T15:04:48;5.55;;;1.45;;
10283;SDS011;5187;52.378;9.018;2022-09-09T15:07:18;3.17;;;1.10;;
10283;SDS011;5187;52.378;9.018;2022-09-09T15:09:48;2.10;;;1.20;;
10283;SDS011;5187;52.378;9.018;2022-09-09T15:12:18;2.63;;;1.17;;
10283;SDS011;5187;52.378;9.018;2022-09-09T15:14:46;2.55;;;1.20;;
10283;SDS011;5187;52.378;9.018;2022-09-09T15:17:16;3.65;;;1.13;;
10283;SDS011;5187;52.378;9.018;2022-09-09T15:19:45;2.40;;;1.10;;
10283;SDS011;5187;52.378;9.018;2022-09-09T15:22:13;2.10;;;1.10;;
10283;SDS011;5187;52.378;9.018;2022-09-09T15:24:41;2.55;;;1.08;;
10283;SDS011;5187;52.378;9.018;2022-09-09T15:27:10;3.35;;;1.10;;
10283;SDS011;5187;52.378;9.018;2022-09-09T15:29:42;5.10;;;1.30;;
10283;SDS011;5187;52.378;9.018;2022-09-09T15:32:11;1.73;;;1.00;;
10283;SDS011;5187;52.378;9.018;2022-09-09T15:34:39;2.30;;;1.00;;
10283;SDS011;5187;52.378;9.018;2022-09-09T15:37:09;3.55;;;1.10;;
10283;SDS011;5187;52.378;9.018;2022-09-09T15:39:39;3.70;;;1.20;;
10283;SDS011;5187;52.378;9.018;2022-09-09T15:42:08;3.35;;;1.00;;
10283;SDS011;5187;52.378;9.018;2022-09-09T15:44:40;2.70;;;1.23;;
10283;SDS011;5187;52.378;9.018;2022-09-09T15:47:11;1.75;;;1.08;;
10283;SDS011;5187;52.378;9.018;2022-09-09T15:49:41;2.75;;;1.20;;
10283;SDS011;5187;52.378;9.018;2022-09-09T15:52:10;2.13;;;1.00;;
10283;SDS011;5187;52.378;9.018;2022-09-09T15:54:39;2.05;;;1.20;;
10283;SDS011;5187;52.378;9.018;2022-09-09T15:57:10;2.97;;;1.10;;
10283;SDS011;5187;52.378;9.018;2022-09-09T15:59:39;1.80;;;1.00;;
10283;SDS011;5187;52.378;9.018;2022-09-09T16:02:08;1.70;;;0.82;;
10283;SDS011;5187;52.378;9.018;2022-09-09T16:04:38;2.25;;;0.77;;
10283;SDS011;5187;52.378;9.018;2022-09-09T16:07:08;2.10;;;1.10;;